createdAt,value
2018-06-22T00:01:22.214Z,11.10
2018-06-22T00:03:50.507Z,11.00
2018-06-22T00:06:18.812Z,11.00
2018-06-22T00:08:47.034Z,10.90
2018-06-22T00:11:15.322Z,11.00
2018-06-22T00:13:43.597Z,11.00
2018-06-22T00:16:11.895Z,10.90
2018-06-22T00:18:40.181Z,10.90
2018-06-22T00:21:08.485Z,11.00
2018-06-22T00:23:36.810Z,10.90
2018-06-22T00:26:05.171Z,10.80
2018-06-22T00:28:33.515Z,10.80
2018-06-22T00:31:01.879Z,10.80
2018-06-22T00:33:30.168Z,10.80
2018-06-22T00:35:58.417Z,10.80
2018-06-22T00:38:26.787Z,10.80
2018-06-22T00:40:55.058Z,10.80
2018-06-22T00:43:23.362Z,11.00
2018-06-22T00:45:51.634Z,11.00
2018-06-22T00:48:19.938Z,11.00
2018-06-22T00:50:48.220Z,11.00
2018-06-22T00:53:28.041Z,11.00
2018-06-22T00:55:56.390Z,10.90
2018-06-22T00:58:24.695Z,10.90
2018-06-22T01:00:52.963Z,10.80
2018-06-22T01:03:21.258Z,10.80
2018-06-22T01:05:49.452Z,10.80
2018-06-22T01:08:17.798Z,10.80
2018-06-22T01:10:46.060Z,10.70
2018-06-22T01:13:14.355Z,10.70
2018-06-22T01:15:42.595Z,10.70
2018-06-22T01:18:10.932Z,10.80
2018-06-22T01:20:39.261Z,10.70
2018-06-22T01:23:07.584Z,10.60
2018-06-22T01:25:35.827Z,10.60
2018-06-22T01:28:04.119Z,10.70
2018-06-22T01:30:32.378Z,10.60
2018-06-22T01:33:00.656Z,10.60
2018-06-22T01:35:28.911Z,10.60
2018-06-22T01:37:57.267Z,10.50
2018-06-22T01:40:25.581Z,10.50
2018-06-22T01:42:53.836Z,10.50
2018-06-22T01:45:22.130Z,10.50
2018-06-22T01:47:50.421Z,10.50
2018-06-22T01:50:18.752Z,10.60
2018-06-22T01:52:47.098Z,10.60
2018-06-22T01:55:15.371Z,10.50
2018-06-22T01:57:43.631Z,10.50
2018-06-22T02:00:11.925Z,10.50
2018-06-22T02:02:40.207Z,10.40
2018-06-22T02:05:08.485Z,10.50
2018-06-22T02:07:36.773Z,10.40
2018-06-22T02:10:05.126Z,10.40
2018-06-22T02:12:33.376Z,10.40
2018-06-22T02:16:05.115Z,10.50
2018-06-22T02:18:33.516Z,10.50
2018-06-22T02:21:01.848Z,10.60
2018-06-22T02:23:30.080Z,10.60
2018-06-22T02:25:58.381Z,10.70
2018-06-22T02:28:26.669Z,10.70
2018-06-22T02:30:54.945Z,10.70
2018-06-22T02:33:23.204Z,10.80
2018-06-22T02:35:51.508Z,10.80
2018-06-22T02:38:19.731Z,10.70
2018-06-22T02:40:48.073Z,10.80
2018-06-22T02:43:16.302Z,10.80
2018-06-22T02:45:44.595Z,10.80
2018-06-22T02:48:12.852Z,10.80
2018-06-22T02:50:41.163Z,10.80
2018-06-22T02:53:09.419Z,10.80
2018-06-22T02:55:37.807Z,10.90
2018-06-22T02:58:06.091Z,10.90
2018-06-22T03:00:34.406Z,10.90
2018-06-22T03:03:02.735Z,10.90
2018-06-22T03:05:31.070Z,10.80
2018-06-22T03:07:59.448Z,10.90
2018-06-22T03:10:27.796Z,10.90
2018-06-22T03:15:24.129Z,11.00
2018-06-22T03:17:52.807Z,10.90
2018-06-22T03:20:21.154Z,10.90
2018-06-22T03:22:49.510Z,11.00
2018-06-22T03:25:17.851Z,11.00
2018-06-22T03:27:46.130Z,11.00
2018-06-22T03:30:14.408Z,11.00
2018-06-22T03:32:43.703Z,11.00
2018-06-22T03:35:12.007Z,10.90
2018-06-22T03:37:40.250Z,11.00
2018-06-22T03:40:08.583Z,11.00
2018-06-22T03:42:36.943Z,11.00
2018-06-22T03:47:33.273Z,11.00
2018-06-22T03:50:01.552Z,11.10
2018-06-22T03:52:29.819Z,11.00
2018-06-22T03:54:58.135Z,11.10
2018-06-22T03:57:26.467Z,11.10
2018-06-22T03:59:54.785Z,11.10
2018-06-22T04:02:23.075Z,11.10
2018-06-22T04:04:51.392Z,11.10
2018-06-22T04:07:19.705Z,11.10
2018-06-22T04:09:48.074Z,11.10
2018-06-22T04:12:16.355Z,11.10
2018-06-22T04:14:44.600Z,11.20
2018-06-22T04:17:12.943Z,11.20
2018-06-22T04:19:41.287Z,11.20
2018-06-22T04:22:09.582Z,11.20
2018-06-22T04:24:37.812Z,11.20
2018-06-22T04:27:06.151Z,11.20
2018-06-22T04:29:34.478Z,11.20
2018-06-22T04:32:02.785Z,11.30
2018-06-22T04:34:31.024Z,11.30
2018-06-22T04:36:59.312Z,11.40
2018-06-22T04:39:27.594Z,11.40
2018-06-22T04:41:55.893Z,11.40
2018-06-22T04:44:24.140Z,11.30
2018-06-22T04:46:52.444Z,11.40
2018-06-22T04:49:20.704Z,11.40
2018-06-22T04:51:49.010Z,11.40
2018-06-22T04:54:17.264Z,11.30
2018-06-22T04:56:45.578Z,11.30
2018-06-22T04:59:13.968Z,11.30
2018-06-22T05:01:42.333Z,11.40
2018-06-22T05:04:10.679Z,11.40
2018-06-22T05:06:38.936Z,11.40
2018-06-22T05:09:07.659Z,11.50
2018-06-22T05:11:36.046Z,11.60
2018-06-22T05:14:04.466Z,11.60
2018-06-22T05:16:32.802Z,11.70
2018-06-22T05:19:01.040Z,11.60
2018-06-22T05:21:29.339Z,11.80
2018-06-22T05:23:57.587Z,11.70
2018-06-22T05:26:25.889Z,11.70
2018-06-22T05:28:54.160Z,11.70
2018-06-22T05:31:22.489Z,11.80
2018-06-22T05:33:50.819Z,11.90
2018-06-22T05:36:19.132Z,11.90
2018-06-22T05:38:47.366Z,11.90
2018-06-22T05:41:15.650Z,11.80
2018-06-22T05:43:45.996Z,11.80
2018-06-22T05:46:14.263Z,11.90
2018-06-22T05:48:42.528Z,12.20
2018-06-22T05:51:11.485Z,12.60
2018-06-22T05:53:39.826Z,12.90
2018-06-22T05:56:08.077Z,13.00
2018-06-22T05:58:36.436Z,12.90
2018-06-22T06:01:04.779Z,12.80
2018-06-22T06:03:33.192Z,12.70
2018-06-22T06:06:01.550Z,12.80
2018-06-22T06:08:29.905Z,13.10
2018-06-22T06:10:58.264Z,13.30
2018-06-22T06:13:26.511Z,13.30
2018-06-22T06:15:54.810Z,13.40
2018-06-22T06:18:23.116Z,13.80
2018-06-22T06:20:51.414Z,13.50
2018-06-22T06:23:19.758Z,13.20
2018-06-22T06:25:48.003Z,13.20
2018-06-22T06:28:16.363Z,13.10
2018-06-22T06:30:44.672Z,13.20
2018-06-22T06:33:12.934Z,13.10
2018-06-22T06:35:41.227Z,13.10
2018-06-22T06:38:09.527Z,13.00
2018-06-22T06:40:37.764Z,12.90
2018-06-22T06:43:06.066Z,13.40
2018-06-22T06:45:34.293Z,13.60
2018-06-22T06:48:02.615Z,13.60
2018-06-22T06:50:30.909Z,13.60
2018-06-22T06:55:27.231Z,13.50
2018-06-22T06:57:55.530Z,13.60
2018-06-22T07:00:23.773Z,13.50
2018-06-22T07:02:52.072Z,13.30
2018-06-22T07:05:20.351Z,13.40
2018-06-22T07:07:48.633Z,13.70
2018-06-22T07:10:16.903Z,13.80
2018-06-22T07:12:45.183Z,13.90
2018-06-22T07:15:13.444Z,13.80
2018-06-22T07:17:41.736Z,13.50
2018-06-22T07:20:10.063Z,13.20
2018-06-22T07:22:38.404Z,13.10
2018-06-22T07:25:06.679Z,12.90
2018-06-22T07:27:34.978Z,12.70
2018-06-22T07:30:03.232Z,12.80
2018-06-22T07:32:31.539Z,12.90
2018-06-22T07:34:59.855Z,13.10
2018-06-22T07:37:28.163Z,13.40
2018-06-22T07:39:56.590Z,13.60
2018-06-22T07:42:24.904Z,13.50
2018-06-22T07:44:53.132Z,13.50
2018-06-22T07:47:21.476Z,13.70
2018-06-22T07:49:49.741Z,14.00
2018-06-22T07:52:18.036Z,14.30
2018-06-22T07:54:46.280Z,14.40
2018-06-22T07:57:14.649Z,14.20
2018-06-22T07:59:42.926Z,14.10
2018-06-22T08:02:11.839Z,13.50
2018-06-22T08:04:40.174Z,13.30
2018-06-22T08:07:08.540Z,12.90
2018-06-22T08:09:36.937Z,12.50
2018-06-22T08:12:05.270Z,12.70
2018-06-22T08:14:33.558Z,12.90
2018-06-22T08:17:01.808Z,13.30
2018-06-22T08:19:30.388Z,13.50
2018-06-22T08:21:58.714Z,13.60
2018-06-22T08:24:27.291Z,13.60
2018-06-22T08:26:55.584Z,13.60
2018-06-22T08:29:23.941Z,13.70
2018-06-22T08:31:52.177Z,13.80
2018-06-22T08:34:20.488Z,13.80
2018-06-22T08:36:48.769Z,14.00
2018-06-22T08:39:17.055Z,14.30
2018-06-22T08:44:13.509Z,14.50
2018-06-22T08:46:41.834Z,14.80
2018-06-22T08:49:10.196Z,15.00
2018-06-22T08:51:38.588Z,15.40
2018-06-22T08:54:06.953Z,15.50
2018-06-22T08:56:35.302Z,15.90
2018-06-22T08:59:03.606Z,16.40
2018-06-22T09:01:32.889Z,16.50
2018-06-22T09:04:01.248Z,16.20
2018-06-22T09:06:31.567Z,16.80
2018-06-22T09:08:59.842Z,17.20
2018-06-22T09:11:28.119Z,17.10
2018-06-22T09:13:56.405Z,16.30
2018-06-22T09:16:24.648Z,16.00
2018-06-22T09:18:52.968Z,15.80
2018-06-22T09:21:21.278Z,16.90
2018-06-22T09:23:49.603Z,18.70
2018-06-22T09:26:17.860Z,20.60
2018-06-22T09:28:46.142Z,20.80
2018-06-22T09:31:14.456Z,21.70
2018-06-22T09:33:42.730Z,22.00
2018-06-22T09:36:11.162Z,21.00
2018-06-22T09:38:39.493Z,21.10
2018-06-22T09:41:07.768Z,20.60
2018-06-22T09:43:36.028Z,21.10
2018-06-22T09:46:04.926Z,21.00
2018-06-22T09:48:33.296Z,19.90
2018-06-22T09:51:01.573Z,19.10
2018-06-22T09:53:29.880Z,18.30
2018-06-22T09:55:58.194Z,16.60
2018-06-22T09:58:26.524Z,16.00
2018-06-22T10:00:54.805Z,15.70
2018-06-22T10:03:23.897Z,15.40
2018-06-22T10:08:20.392Z,16.60
2018-06-22T10:10:48.698Z,18.20
2018-06-22T10:13:17.119Z,19.40
2018-06-22T10:15:53.754Z,20.00
2018-06-22T10:18:22.868Z,20.40
2018-06-22T10:20:51.131Z,21.00
2018-06-22T10:23:19.439Z,21.50
2018-06-22T10:25:47.696Z,20.60
2018-06-22T10:28:16.100Z,20.50
2018-06-22T10:30:44.458Z,19.50
2018-06-22T10:33:12.747Z,18.20
2018-06-22T10:35:41.205Z,16.80
2018-06-22T10:38:09.518Z,16.20
2018-06-22T10:40:38.159Z,16.10
2018-06-22T10:43:06.672Z,16.10
2018-06-22T10:45:34.917Z,16.30
2018-06-22T10:48:03.245Z,16.40
2018-06-22T10:50:31.594Z,16.80
2018-06-22T10:52:59.882Z,17.10
2018-06-22T10:55:28.172Z,17.50
2018-06-22T10:57:56.572Z,17.70
2018-06-22T11:00:24.911Z,17.60
2018-06-22T11:05:21.261Z,18.30
2018-06-22T11:07:49.510Z,18.70
2018-06-22T11:10:17.813Z,19.10
2018-06-22T11:12:46.062Z,20.00
2018-06-22T11:15:14.339Z,20.90
2018-06-22T11:17:42.639Z,20.70
2018-06-22T11:20:10.917Z,19.90
2018-06-22T11:22:39.169Z,20.10
2018-06-22T11:25:07.507Z,20.60
2018-06-22T11:27:35.812Z,19.50
2018-06-22T11:30:04.845Z,18.90
2018-06-22T11:32:33.102Z,19.60
2018-06-22T11:35:01.424Z,20.20
2018-06-22T11:37:29.770Z,20.10
2018-06-22T11:39:58.081Z,19.30
2018-06-22T11:42:27.360Z,19.20
2018-06-22T11:44:55.664Z,19.70
2018-06-22T11:47:25.025Z,20.50
2018-06-22T11:49:53.323Z,20.40
2018-06-22T11:52:21.597Z,20.50
2018-06-22T11:54:49.874Z,20.50
2018-06-22T11:57:18.427Z,20.60
2018-06-22T11:59:46.751Z,21.30
2018-06-22T12:02:14.993Z,21.80
2018-06-22T12:04:43.363Z,22.10
2018-06-22T12:07:11.549Z,21.10
2018-06-22T12:09:39.820Z,20.20
2018-06-22T12:12:08.126Z,20.10
2018-06-22T12:14:36.405Z,20.20
2018-06-22T12:17:04.793Z,20.30
2018-06-22T12:19:33.134Z,21.30
2018-06-22T12:22:01.425Z,21.60
2018-06-22T12:24:29.702Z,21.30
2018-06-22T12:26:57.980Z,20.60
2018-06-22T12:29:26.274Z,20.10
2018-06-22T12:31:54.492Z,20.20
2018-06-22T12:34:22.799Z,20.70
2018-06-22T12:36:51.133Z,20.50
2018-06-22T12:39:19.483Z,19.80
2018-06-22T12:41:48.777Z,19.50
2018-06-22T12:44:17.031Z,19.20
2018-06-22T12:46:45.328Z,19.00
2018-06-22T12:49:13.616Z,19.10
2018-06-22T12:51:41.858Z,19.10
2018-06-22T12:54:10.185Z,18.90
2018-06-22T12:56:38.522Z,18.70
2018-06-22T12:59:06.827Z,18.70
2018-06-22T13:04:03.219Z,18.60
2018-06-22T13:06:31.475Z,18.60
2018-06-22T13:08:59.776Z,18.30
2018-06-22T13:11:28.093Z,18.30
2018-06-22T13:13:56.337Z,18.50
2018-06-22T13:16:24.669Z,18.60
2018-06-22T13:18:52.916Z,19.40
2018-06-22T13:21:21.206Z,20.20
2018-06-22T13:23:49.437Z,20.20
2018-06-22T13:26:17.734Z,19.90
2018-06-22T13:28:46.043Z,19.50
2018-06-22T13:31:14.304Z,19.90
2018-06-22T13:33:42.569Z,19.90
2018-06-22T13:36:10.854Z,20.30
2018-06-22T13:38:39.203Z,20.70
2018-06-22T13:41:07.504Z,20.10
2018-06-22T13:43:35.825Z,20.40
2018-06-22T13:46:04.070Z,20.80
2018-06-22T13:48:32.341Z,21.10
2018-06-22T13:51:00.698Z,21.30
2018-06-22T13:53:29.004Z,21.30
2018-06-22T13:55:57.330Z,21.10
2018-06-22T13:58:25.696Z,21.30
2018-06-22T14:00:54.660Z,21.70
2018-06-22T14:03:23.000Z,21.50
2018-06-22T14:05:57.367Z,21.60
2018-06-22T14:08:25.632Z,21.40
2018-06-22T14:10:53.983Z,21.30
2018-06-22T14:13:22.331Z,21.30
2018-06-22T14:15:52.842Z,20.50
2018-06-22T14:18:23.075Z,20.30
2018-06-22T14:20:52.199Z,20.20
2018-06-22T14:23:20.475Z,20.10
2018-06-22T14:25:48.797Z,20.10
2018-06-22T14:28:17.311Z,19.80
2018-06-22T14:30:45.592Z,19.60
2018-06-22T14:33:13.819Z,19.50
2018-06-22T14:35:42.134Z,19.90
2018-06-22T14:38:10.354Z,20.30
2018-06-22T14:40:38.665Z,20.60
2018-06-22T14:43:06.927Z,21.00
2018-06-22T14:45:35.224Z,20.80
2018-06-22T14:48:03.483Z,20.00
2018-06-22T14:50:31.845Z,19.90
2018-06-22T14:53:00.114Z,19.70
2018-06-22T14:55:33.784Z,20.10
2018-06-22T14:58:07.455Z,19.90
2018-06-22T15:00:41.115Z,19.80
2018-06-22T15:04:13.735Z,19.80
2018-06-22T15:06:47.392Z,19.60
2018-06-22T15:09:15.711Z,19.90
2018-06-22T15:11:44.033Z,19.80
2018-06-22T15:14:12.370Z,19.70
2018-06-22T15:16:40.688Z,19.50
2018-06-22T15:19:08.940Z,19.40
2018-06-22T15:21:37.218Z,19.50
2018-06-22T15:24:05.484Z,19.40
2018-06-22T15:26:33.769Z,19.20
2018-06-22T15:29:02.068Z,19.20
2018-06-22T15:31:30.328Z,19.20
2018-06-22T15:34:04.167Z,19.10
2018-06-22T15:36:38.051Z,19.10
2018-06-22T15:39:13.781Z,19.00
2018-06-22T15:41:47.676Z,18.80
2018-06-22T15:44:21.296Z,18.70
2018-06-22T15:46:55.038Z,18.40
2018-06-22T15:49:28.718Z,18.60
2018-06-22T15:52:02.503Z,18.50
2018-06-22T15:54:36.221Z,18.60
2018-06-22T15:57:04.582Z,18.70
2018-06-22T15:59:32.876Z,18.90
2018-06-22T16:02:06.638Z,19.00
2018-06-22T16:04:34.958Z,19.10
2018-06-22T16:07:03.272Z,19.40
2018-06-22T16:09:31.766Z,19.50
2018-06-22T16:12:05.571Z,19.60
2018-06-22T16:14:39.277Z,19.80
2018-06-22T16:17:13.002Z,20.10
2018-06-22T16:19:46.784Z,20.40
2018-06-22T16:22:20.637Z,20.80
2018-06-22T16:24:54.392Z,21.10
2018-06-22T16:27:22.791Z,20.90
2018-06-22T16:29:51.112Z,20.70
2018-06-22T16:32:19.523Z,20.50
2018-06-22T16:34:47.803Z,20.20
2018-06-22T16:37:16.088Z,20.30
2018-06-22T16:39:44.419Z,20.30
2018-06-22T16:42:12.748Z,20.40
2018-06-22T16:44:41.077Z,20.00
2018-06-22T16:47:09.404Z,19.90
2018-06-22T16:49:37.774Z,19.90
2018-06-22T16:52:06.134Z,19.70
2018-06-22T16:54:34.400Z,19.50
2018-06-22T16:57:02.709Z,19.20
2018-06-22T16:59:30.951Z,19.10
2018-06-22T17:01:59.232Z,19.00
2018-06-22T17:04:27.504Z,19.00
2018-06-22T17:07:01.244Z,18.90
2018-06-22T17:09:34.969Z,18.80
2018-06-22T17:12:08.625Z,18.80
2018-06-22T17:14:42.255Z,18.70
2018-06-22T17:17:16.519Z,18.60
2018-06-22T17:19:44.860Z,18.60
2018-06-22T17:22:13.135Z,18.80
2018-06-22T17:24:41.619Z,18.80
2018-06-22T17:27:10.002Z,18.90
2018-06-22T17:29:38.228Z,19.00
2018-06-22T17:32:06.552Z,19.10
2018-06-22T17:34:34.895Z,19.00
2018-06-22T17:37:03.178Z,19.00
2018-06-22T17:39:31.466Z,19.10
2018-06-22T17:41:59.731Z,19.20
2018-06-22T17:44:28.008Z,19.10
2018-06-22T17:46:56.314Z,18.90
2018-06-22T17:49:24.691Z,18.80
2018-06-22T17:51:53.070Z,18.60
2018-06-22T17:54:21.329Z,18.50
2018-06-22T17:59:23.187Z,18.10
2018-06-22T18:01:56.851Z,18.00
2018-06-22T18:04:30.607Z,17.90
2018-06-22T18:07:04.268Z,17.80
2018-06-22T18:09:38.160Z,17.70
2018-06-22T18:12:12.092Z,17.60
2018-06-22T18:14:40.377Z,17.50
2018-06-22T18:17:08.670Z,17.20
2018-06-22T18:19:36.939Z,16.60
2018-06-22T18:22:05.242Z,16.40
2018-06-22T18:24:33.627Z,16.20
2018-06-22T18:27:02.033Z,16.10
2018-06-22T18:29:30.354Z,16.10
2018-06-22T18:31:58.587Z,16.00
2018-06-22T18:34:26.912Z,15.90
2018-06-22T18:36:55.219Z,15.80
2018-06-22T18:39:23.478Z,15.80
2018-06-22T18:41:51.795Z,15.70
2018-06-22T18:44:20.144Z,15.70
2018-06-22T18:46:48.445Z,15.70
2018-06-22T18:49:16.834Z,15.70
2018-06-22T18:51:45.340Z,15.80
2018-06-22T18:54:18.980Z,15.70
2018-06-22T18:56:52.689Z,15.80
2018-06-22T18:59:26.301Z,15.90
2018-06-22T19:04:28.382Z,15.90
2018-06-22T19:06:56.686Z,15.90
2018-06-22T19:09:25.079Z,16.00
2018-06-22T19:11:53.441Z,16.00
2018-06-22T19:14:21.818Z,16.00
2018-06-22T19:16:51.067Z,15.90
2018-06-22T19:19:19.444Z,15.90
2018-06-22T19:21:47.807Z,15.90
2018-06-22T19:24:16.140Z,15.80
2018-06-22T19:26:44.481Z,15.70
2018-06-22T19:29:12.830Z,15.70
2018-06-22T19:31:41.146Z,15.60
2018-06-22T19:34:09.516Z,15.50
2018-06-22T19:36:37.860Z,15.40
2018-06-22T19:39:08.344Z,15.40
2018-06-22T19:41:36.691Z,15.30
2018-06-22T19:44:10.375Z,15.30
2018-06-22T19:46:44.078Z,15.30
2018-06-22T19:49:17.791Z,15.30
2018-06-22T19:51:51.508Z,15.30
2018-06-22T19:54:19.839Z,15.20
2018-06-22T19:56:48.094Z,15.20
2018-06-22T19:59:16.537Z,15.10
2018-06-22T20:01:44.864Z,15.10
2018-06-22T20:04:13.301Z,15.10
2018-06-22T20:06:41.613Z,15.00
2018-06-22T20:09:11.425Z,15.00
2018-06-22T20:11:39.740Z,15.00
2018-06-22T20:14:08.086Z,15.00
2018-06-22T20:19:04.448Z,14.90
2018-06-22T20:24:00.935Z,14.80
2018-06-22T20:26:29.247Z,14.80
2018-06-22T20:28:57.530Z,14.70
2018-06-22T20:31:31.111Z,14.70
2018-06-22T20:34:04.782Z,14.60
2018-06-22T20:36:39.418Z,14.60
2018-06-22T20:39:13.156Z,14.60
2018-06-22T20:42:53.321Z,14.60
2018-06-22T20:45:27.078Z,14.60
2018-06-22T20:48:00.839Z,14.60
2018-06-22T20:50:31.535Z,14.70
2018-06-22T20:52:59.999Z,14.60
2018-06-22T20:55:28.364Z,14.60
2018-06-22T20:57:56.619Z,14.60
2018-06-22T21:00:24.882Z,14.60
2018-06-22T21:02:53.177Z,14.50
2018-06-22T21:05:21.469Z,14.50
2018-06-22T21:07:49.708Z,14.50
2018-06-22T21:10:19.031Z,14.50
2018-06-22T21:12:47.501Z,14.50
2018-06-22T21:15:15.742Z,14.50
2018-06-22T21:17:44.045Z,14.40
2018-06-22T21:20:12.396Z,14.40
2018-06-22T21:22:40.759Z,14.40
2018-06-22T21:25:09.164Z,14.30
2018-06-22T21:27:42.874Z,14.30
2018-06-22T21:30:16.550Z,14.30
2018-06-22T21:32:50.263Z,14.30
2018-06-22T21:35:24.015Z,14.30
2018-06-22T21:37:57.500Z,14.30
2018-06-22T21:40:25.921Z,14.30
2018-06-22T21:42:54.145Z,14.30
2018-06-22T21:45:22.513Z,14.30
2018-06-22T21:47:50.809Z,14.20
2018-06-22T21:50:19.112Z,14.20
2018-06-22T21:52:47.357Z,14.20
2018-06-22T21:55:15.664Z,14.20
2018-06-22T21:59:52.464Z,14.20
2018-06-22T22:02:20.786Z,14.20
2018-06-22T22:04:49.127Z,14.10
2018-06-22T22:07:17.356Z,14.10
2018-06-22T22:09:45.683Z,14.10
2018-06-22T22:12:14.035Z,14.10
2018-06-22T22:14:42.348Z,14.10
2018-06-22T22:17:10.587Z,14.10
2018-06-22T22:19:39.332Z,14.00
2018-06-22T22:22:08.169Z,14.10
2018-06-22T22:24:36.470Z,14.10
2018-06-22T22:27:04.745Z,14.10
2018-06-22T22:29:33.020Z,14.10
2018-06-22T22:34:29.381Z,14.10
2018-06-22T22:39:25.702Z,14.10
2018-06-22T22:41:53.957Z,14.10
2018-06-22T22:44:22.260Z,14.10
2018-06-22T22:46:50.572Z,14.10
2018-06-22T22:49:18.914Z,14.10
2018-06-22T22:51:47.190Z,14.00
2018-06-22T22:54:15.515Z,13.90
2018-06-22T22:56:43.830Z,13.90
2018-06-22T22:59:12.136Z,13.80
2018-06-22T23:01:40.389Z,13.80
2018-06-22T23:04:08.713Z,13.80
2018-06-22T23:06:36.963Z,13.70
2018-06-22T23:09:07.160Z,13.80
2018-06-22T23:11:35.467Z,13.70
2018-06-22T23:16:31.835Z,13.70
2018-06-22T23:19:00.203Z,13.60
2018-06-22T23:21:28.481Z,13.60
2018-06-22T23:23:56.744Z,13.60
2018-06-22T23:26:25.034Z,13.60
2018-06-22T23:28:53.331Z,13.60
2018-06-22T23:31:21.670Z,13.50
2018-06-22T23:33:49.954Z,13.50
2018-06-22T23:36:18.219Z,13.50
2018-06-22T23:38:47.512Z,13.50
2018-06-22T23:41:15.828Z,13.50
2018-06-22T23:43:44.083Z,13.50
2018-06-22T23:46:12.410Z,13.50
2018-06-22T23:48:40.717Z,13.40
2018-06-22T23:51:09.052Z,13.40
2018-06-22T23:53:37.404Z,13.30
2018-06-22T23:58:33.714Z,13.30
